createdAt,value
2022-11-20T00:03:00.924Z,-6.7
2022-11-20T00:06:00.918Z,-6.8
2022-11-20T00:07:01.000Z,-6.9
2022-11-20T00:10:01.038Z,-6.8
2022-11-20T00:13:00.920Z,-6.9
2022-11-20T00:14:00.910Z,-7
2022-11-20T00:15:00.963Z,-6.9
2022-11-20T00:17:01.005Z,-7
2022-11-20T00:19:00.914Z,-7
2022-11-20T00:21:00.917Z,-6.9
2022-11-20T00:24:00.970Z,-7.1
2022-11-20T00:28:00.929Z,-7.2
2022-11-20T00:30:01.115Z,-7.2
2022-11-20T00:33:00.931Z,-7.3
2022-11-20T00:34:00.956Z,-7.2
2022-11-20T00:36:00.939Z,-7.3
2022-11-20T00:37:01.020Z,-7.2
2022-11-20T00:39:01.140Z,-7.3
2022-11-20T00:41:00.904Z,-7.3
2022-11-20T00:44:00.921Z,-7.4
2022-11-20T00:45:00.971Z,-7.2
2022-11-20T00:47:00.945Z,-7.2
2022-11-20T00:48:00.949Z,-7.4
2022-11-20T00:50:00.967Z,-7.4
2022-11-20T00:52:00.943Z,-7.3
2022-11-20T00:53:00.949Z,-7.4
2022-11-20T01:01:01.010Z,-7.5
2022-11-20T01:03:00.936Z,-7.3
2022-11-20T01:05:01.104Z,-7.5
2022-11-20T01:07:00.969Z,-7.3
2022-11-20T01:09:00.914Z,-7.3
2022-11-20T01:11:00.979Z,-7.4
2022-11-20T01:13:00.926Z,-7.2
2022-11-20T01:14:00.913Z,-7.3
2022-11-20T01:18:00.946Z,-7.4
2022-11-20T01:19:00.942Z,-7.2
2022-11-20T01:21:00.911Z,-7.4
2022-11-20T01:22:00.906Z,-7.3
2022-11-20T01:24:00.957Z,-7.1
2022-11-20T01:26:00.964Z,-7.2
2022-11-20T01:28:00.927Z,-7.3
2022-11-20T01:29:00.993Z,-7.2
2022-11-20T01:32:00.988Z,-7.3
2022-11-20T01:34:00.951Z,-7.1
2022-11-20T01:36:00.914Z,-7.2
2022-11-20T01:38:00.938Z,-7.2
2022-11-20T01:39:00.968Z,-7.3
2022-11-20T01:41:00.968Z,-7.1
2022-11-20T01:46:00.936Z,-7.2
2022-11-20T01:50:00.912Z,-7.3
2022-11-20T01:52:00.938Z,-7.4
2022-11-20T01:54:00.941Z,-7.5
2022-11-20T01:55:00.951Z,-7.4
2022-11-20T01:57:00.930Z,-7.5
2022-11-20T02:00:00.971Z,-7.6
2022-11-20T02:02:01.006Z,-7.5
2022-11-20T02:06:00.933Z,-7.5
2022-11-20T02:07:00.922Z,-7.7
2022-11-20T02:10:00.954Z,-7.6
2022-11-20T02:12:00.973Z,-7.5
2022-11-20T02:13:00.958Z,-7.7
2022-11-20T02:16:01.019Z,-7.8
2022-11-20T02:18:00.925Z,-7.8
2022-11-20T02:19:00.963Z,-7.6
2022-11-20T02:21:01.029Z,-7.5
2022-11-20T02:23:00.911Z,-7.7
2022-11-20T02:24:00.919Z,-7.6
2022-11-20T02:26:00.932Z,-7.7
2022-11-20T02:28:00.911Z,-7.6
2022-11-20T02:29:00.917Z,-7.5
2022-11-20T02:31:01.052Z,-7.4
2022-11-20T02:33:01.118Z,-7.4
2022-11-20T02:37:00.922Z,-7.4
2022-11-20T02:43:00.966Z,-7.2
2022-11-20T02:44:00.951Z,-7.4
2022-11-20T02:45:00.970Z,-7.3
2022-11-20T02:47:00.933Z,-7.3
2022-11-20T02:50:00.931Z,-7.1
2022-11-20T02:51:00.942Z,-7.3
2022-11-20T02:54:00.924Z,-7
2022-11-20T02:55:01.000Z,-7.1
2022-11-20T02:57:00.917Z,-7.1
2022-11-20T02:58:00.925Z,-7.2
2022-11-20T02:59:00.904Z,-7
2022-11-20T03:02:00.908Z,-7.1
2022-11-20T03:04:00.898Z,-7
2022-11-20T03:05:00.946Z,-7.2
2022-11-20T03:06:00.950Z,-7.1
2022-11-20T03:08:00.912Z,-7.2
2022-11-20T03:09:00.913Z,-7.1
2022-11-20T03:10:00.918Z,-7.2
2022-11-20T03:12:00.905Z,-7.1
2022-11-20T03:13:00.904Z,-7
2022-11-20T03:14:00.929Z,-7.1
2022-11-20T03:15:00.951Z,-7.2
2022-11-20T03:16:00.996Z,-7.3
2022-11-20T03:18:00.939Z,-7.2
2022-11-20T03:20:00.902Z,-7.3
2022-11-20T03:22:00.919Z,-7.1
2022-11-20T03:23:00.925Z,-7.2
2022-11-20T03:24:00.958Z,-7.1
2022-11-20T03:26:00.939Z,-7
2022-11-20T03:27:00.920Z,-7.2
2022-11-20T03:29:00.919Z,-7
2022-11-20T03:30:01.187Z,-7.2
2022-11-20T03:32:00.952Z,-7.2
2022-11-20T03:34:00.938Z,-7.4
2022-11-20T03:44:00.932Z,-7.1
2022-11-20T03:45:00.959Z,-7.3
2022-11-20T03:50:00.962Z,-7.1
2022-11-20T03:52:00.916Z,-7.2
2022-11-20T03:53:00.928Z,-7.3
2022-11-20T03:54:00.911Z,-7.1
2022-11-20T03:56:00.932Z,-7.2
2022-11-20T03:59:00.991Z,-7.2
2022-11-20T04:01:00.927Z,-7.3
2022-11-20T04:04:00.912Z,-7.2
2022-11-20T04:05:00.920Z,-7.3
2022-11-20T04:07:00.914Z,-7.2
2022-11-20T04:08:00.906Z,-7.1
2022-11-20T04:09:00.938Z,-7.2
2022-11-20T04:10:00.993Z,-7.3
2022-11-20T04:12:00.947Z,-7.3
2022-11-20T04:15:01.038Z,-7.2
2022-11-20T04:17:00.919Z,-7.2
2022-11-20T04:18:00.952Z,-7.4
2022-11-20T04:22:01.035Z,-7.4
2022-11-20T04:25:00.948Z,-7.5
2022-11-20T04:27:00.930Z,-7.2
2022-11-20T04:29:00.950Z,-7.4
2022-11-20T04:31:00.926Z,-7.5
2022-11-20T04:34:00.937Z,-7.6
2022-11-20T04:35:00.923Z,-7.7
2022-11-20T04:36:00.938Z,-7.5
2022-11-20T04:38:01.031Z,-7.6
2022-11-20T04:40:00.900Z,-7.5
2022-11-20T04:41:00.943Z,-7.6
2022-11-20T04:43:00.933Z,-7.7
2022-11-20T04:49:00.917Z,-7.8
2022-11-20T04:50:00.938Z,-7.7
2022-11-20T04:51:00.904Z,-7.6
2022-11-20T04:53:01.006Z,-7.5
2022-11-20T04:56:00.966Z,-7.5
2022-11-20T04:59:01.006Z,-7.5
2022-11-20T05:00:01.094Z,-7.6
2022-11-20T05:04:00.918Z,-7.4
2022-11-20T05:05:00.974Z,-7.5
2022-11-20T05:07:01.000Z,-7.4
2022-11-20T05:09:00.939Z,-7.5
2022-11-20T05:10:00.910Z,-7.4
2022-11-20T05:11:00.966Z,-7.5
2022-11-20T05:12:00.960Z,-7.6
2022-11-20T05:16:01.003Z,-7.5
2022-11-20T05:18:00.967Z,-7.5
2022-11-20T05:20:00.911Z,-7.6
2022-11-20T05:21:00.937Z,-7.5
2022-11-20T05:24:01.044Z,-7.6
2022-11-20T05:26:00.934Z,-7.6
2022-11-20T05:27:00.905Z,-7.5
2022-11-20T05:29:00.963Z,-7.5
2022-11-20T05:30:01.073Z,-7.6
2022-11-20T05:32:01.023Z,-7.7
2022-11-20T05:37:00.951Z,-7.7
2022-11-20T05:38:00.974Z,-7.6
2022-11-20T05:39:01.678Z,-7.7
2022-11-20T05:42:00.927Z,-7.8
2022-11-20T05:43:00.898Z,-7.7
2022-11-20T05:44:00.903Z,-7.8
2022-11-20T05:45:01.125Z,-7.7
2022-11-20T05:47:00.923Z,-8
2022-11-20T05:49:00.952Z,-8
2022-11-20T05:50:00.959Z,-7.8
2022-11-20T05:51:00.967Z,-8
2022-11-20T05:52:00.964Z,-7.9
2022-11-20T05:54:00.921Z,-8.2
2022-11-20T05:56:00.973Z,-8.1
2022-11-20T05:58:00.984Z,-8.2
2022-11-20T06:02:00.950Z,-8.1
2022-11-20T06:04:00.932Z,-8.2
2022-11-20T06:05:00.946Z,-8.3
2022-11-20T06:07:01.004Z,-8.1
2022-11-20T06:09:01.000Z,-8.1
2022-11-20T06:11:00.942Z,-8.2
2022-11-20T06:13:00.924Z,-8.3
2022-11-20T06:15:01.079Z,-8.2
2022-11-20T06:17:00.977Z,-8.3
2022-11-20T06:22:00.906Z,-8.2
2022-11-20T06:24:00.894Z,-8.3
2022-11-20T06:25:00.911Z,-8.4
2022-11-20T06:26:00.949Z,-8.3
2022-11-20T06:28:00.920Z,-8.2
2022-11-20T06:29:00.926Z,-8.4
2022-11-20T06:32:01.010Z,-8.3
2022-11-20T06:33:01.064Z,-8.2
2022-11-20T06:35:00.978Z,-8.4
2022-11-20T06:37:00.927Z,-8.2
2022-11-20T06:39:00.907Z,-8.4
2022-11-20T06:40:00.929Z,-8.5
2022-11-20T06:41:00.945Z,-8.4
2022-11-20T06:45:00.924Z,-8.5
2022-11-20T06:46:00.991Z,-8.4
2022-11-20T06:48:00.928Z,-8.6
2022-11-20T06:49:00.934Z,-8.5
2022-11-20T06:51:00.932Z,-8.7
2022-11-20T06:52:00.964Z,-8.5
2022-11-20T06:55:00.951Z,-8.5
2022-11-20T06:56:00.957Z,-8.6
2022-11-20T06:59:00.936Z,-8.4
2022-11-20T07:01:00.944Z,-8.2
2022-11-20T07:03:00.952Z,-8.3
2022-11-20T07:04:00.927Z,-8.2
2022-11-20T07:06:00.938Z,-8
2022-11-20T07:07:00.983Z,-8.1
2022-11-20T07:10:00.990Z,-7.9
2022-11-20T07:12:00.919Z,-7.9
2022-11-20T07:15:00.951Z,-7.8
2022-11-20T07:16:00.955Z,-7.7
2022-11-20T07:20:00.911Z,-7.6
2022-11-20T07:23:00.920Z,-7.4
2022-11-20T07:26:00.943Z,-7.3
2022-11-20T07:27:00.920Z,-7.2
2022-11-20T07:28:00.955Z,-7.1
2022-11-20T07:30:01.176Z,-6.9
2022-11-20T07:32:01.066Z,-6.8
2022-11-20T07:34:01.005Z,-6.6
2022-11-20T07:36:01.000Z,-6.4
2022-11-20T07:38:00.961Z,-6.4
2022-11-20T07:41:00.926Z,-6
2022-11-20T07:43:01.028Z,-5.8
2022-11-20T07:45:01.153Z,-5.7
2022-11-20T07:47:01.010Z,-5.6
2022-11-20T07:51:00.916Z,-5.4
2022-11-20T07:52:04.643Z,-5.3
2022-11-20T07:53:00.993Z,-5.2
2022-11-20T07:54:01.040Z,-5.3
2022-11-20T07:56:00.931Z,-5.1
2022-11-20T07:57:00.930Z,-5
2022-11-20T08:00:01.101Z,-4.9
2022-11-20T08:03:00.928Z,-4.9
2022-11-20T08:06:00.970Z,-4.6
2022-11-20T08:09:00.957Z,-4.5
2022-11-20T08:11:00.936Z,-4.4
2022-11-20T08:12:00.943Z,-4.5
2022-11-20T08:14:00.967Z,-4.3
2022-11-20T08:15:01.047Z,-4.2
2022-11-20T08:17:00.963Z,-4.2
2022-11-20T08:21:00.974Z,-4.1
2022-11-20T08:24:00.984Z,-3.9
2022-11-20T08:25:00.973Z,-4.1
2022-11-20T08:27:00.968Z,-3.8
2022-11-20T08:29:00.989Z,-3.7
2022-11-20T08:31:01.176Z,-3.6
2022-11-20T08:33:00.990Z,-3.6
2022-11-20T08:36:00.955Z,-3.5
2022-11-20T08:37:01.012Z,-3.4
2022-11-20T08:39:00.907Z,-3.3
2022-11-20T08:41:00.931Z,-3.2
2022-11-20T08:44:01.000Z,-3.1
2022-11-20T08:45:01.123Z,-2.9
2022-11-20T08:49:00.955Z,-2.7
2022-11-20T08:51:00.927Z,-2.5
2022-11-20T08:52:00.975Z,-2.6
2022-11-20T08:55:00.964Z,-2.3
2022-11-20T08:59:23.268Z,-2.2
2022-11-20T09:01:00.910Z,-2
2022-11-20T09:02:00.930Z,-2.1
2022-11-20T09:05:00.925Z,-1.9
2022-11-20T09:07:00.969Z,-1.8
2022-11-20T09:08:00.952Z,-1.7
2022-11-20T09:12:00.934Z,-1.6
2022-11-20T09:14:00.930Z,-1.4
2022-11-20T09:17:00.986Z,-1.5
2022-11-20T09:19:20.543Z,-1.4
2022-11-20T09:20:00.939Z,-1.3
2022-11-20T09:22:00.976Z,-1.2
2022-11-20T09:24:00.892Z,-1.3
2022-11-20T09:26:00.938Z,-1.2
2022-11-20T09:28:00.941Z,-1.1
2022-11-20T09:29:00.901Z,-1.3
2022-11-20T09:31:01.020Z,-1.1
2022-11-20T09:33:00.913Z,-1.1
2022-11-20T09:34:00.954Z,-1
2022-11-20T09:41:00.928Z,-1
2022-11-20T09:42:00.918Z,-0.9
2022-11-20T09:45:00.991Z,-0.9
2022-11-20T09:48:00.906Z,-0.7
2022-11-20T09:50:00.931Z,-0.8
2022-11-20T09:52:00.924Z,-0.8
2022-11-20T09:53:00.920Z,-0.7
2022-11-20T09:55:00.963Z,-0.6
2022-11-20T09:58:00.941Z,-0.7
2022-11-20T10:00:01.029Z,-0.6
2022-11-20T10:06:00.947Z,-0.7
2022-11-20T10:08:00.961Z,-0.6
2022-11-20T10:11:00.917Z,-0.5
2022-11-20T10:13:00.937Z,-0.6
2022-11-20T10:15:01.005Z,-0.5
2022-11-20T10:16:01.065Z,-0.7
2022-11-20T10:18:00.986Z,-0.6
2022-11-20T10:19:00.971Z,-0.7
2022-11-20T10:20:00.975Z,-0.6
2022-11-20T10:22:00.964Z,-0.6
2022-11-20T10:24:00.891Z,-0.6
2022-11-20T10:29:03.533Z,-0.5
2022-11-20T10:34:12.290Z,-0.4
2022-11-20T10:36:00.912Z,-0.5
2022-11-20T10:37:01.001Z,-0.4
2022-11-20T10:39:00.938Z,-0.3
2022-11-20T10:42:00.962Z,-0.4
2022-11-20T10:45:04.373Z,-0.3
2022-11-20T10:47:00.920Z,-0.3
2022-11-20T10:48:00.956Z,-0.4
2022-11-20T10:50:00.934Z,-0.3
2022-11-20T10:51:00.956Z,-0.2
2022-11-20T10:53:00.936Z,-0.3
2022-11-20T10:54:00.967Z,-0.4
2022-11-20T10:55:00.982Z,-0.3
2022-11-20T10:57:01.012Z,-0.2
2022-11-20T11:01:00.955Z,-0.2
2022-11-20T11:02:03.300Z,-0.3
2022-11-20T11:05:00.953Z,-0.2
2022-11-20T11:07:01.054Z,-0.4
2022-11-20T11:11:00.989Z,-0.2
2022-11-20T11:14:00.982Z,-0.3
2022-11-20T11:15:01.020Z,-0.2
2022-11-20T11:18:00.958Z,-0.1
2022-11-20T11:19:00.904Z,-0.3
2022-11-20T11:21:00.965Z,-0.2
2022-11-20T11:22:00.959Z,-0.1
2022-11-20T11:25:00.993Z,-0.1
2022-11-20T11:29:00.955Z,0
2022-11-20T11:32:01.060Z,0.1
2022-11-20T11:33:01.046Z,0
2022-11-20T11:39:00.906Z,0
2022-11-20T11:40:22.714Z,0.1
2022-11-20T11:42:00.973Z,0.1
2022-11-20T11:44:00.909Z,0.1
2022-11-20T11:52:00.943Z,0.2
2022-11-20T11:53:00.928Z,0.1
2022-11-20T11:55:00.928Z,0
2022-11-20T11:57:01.027Z,0.1
2022-11-20T11:59:00.918Z,0.2
2022-11-20T12:00:00.961Z,0.1
2022-11-20T12:02:01.035Z,0.1
2022-11-20T12:04:01.034Z,0.3
2022-11-20T12:07:06.052Z,0.3
2022-11-20T12:14:00.925Z,0.3
2022-11-20T12:15:00.989Z,0.2
2022-11-20T12:19:00.923Z,0.3
2022-11-20T12:21:00.930Z,0.2
2022-11-20T12:23:00.961Z,0.3
2022-11-20T12:25:00.953Z,0.2
2022-11-20T12:27:00.946Z,0.3
2022-11-20T12:28:00.951Z,0.2
2022-11-20T12:29:00.987Z,0.3
2022-11-20T12:31:00.995Z,0.2
2022-11-20T12:32:01.026Z,0.3
2022-11-20T12:35:00.995Z,0.4
2022-11-20T12:37:00.957Z,0.4
2022-11-20T12:40:00.907Z,0.2
2022-11-20T12:42:00.910Z,0.3
2022-11-20T12:43:00.994Z,0.4
2022-11-20T12:46:00.924Z,0.2
2022-11-20T12:47:00.923Z,0.4
2022-11-20T12:51:14.343Z,0.3
2022-11-20T12:52:00.989Z,0.4
2022-11-20T12:54:00.967Z,0.3
2022-11-20T12:55:00.955Z,0.4
2022-11-20T13:01:01.155Z,0.5
2022-11-20T13:03:00.930Z,0.6
2022-11-20T13:04:00.933Z,0.5
2022-11-20T13:05:00.967Z,0.4
2022-11-20T13:07:01.018Z,0.6
2022-11-20T13:09:00.983Z,0.5
2022-11-20T13:10:00.974Z,0.4
2022-11-20T13:16:01.008Z,0.6
2022-11-20T13:18:01.016Z,0.6
2022-11-20T13:20:00.997Z,0.6
2022-11-20T13:22:00.943Z,0.5
2022-11-20T13:23:00.975Z,0.7
2022-11-20T13:25:00.920Z,0.5
2022-11-20T13:26:00.926Z,0.7
2022-11-20T13:28:00.929Z,0.6
2022-11-20T13:31:01.005Z,0.5
2022-11-20T13:36:01.335Z,0.6
2022-11-20T13:37:00.994Z,0.5
2022-11-20T13:39:00.941Z,0.6
2022-11-20T13:42:00.941Z,0.6
2022-11-20T13:47:01.076Z,0.5
2022-11-20T13:49:00.960Z,0.5
2022-11-20T13:52:00.921Z,0.6
2022-11-20T13:53:00.980Z,0.5
2022-11-20T13:56:00.952Z,0.4
2022-11-20T13:58:00.935Z,0.5
2022-11-20T14:00:01.069Z,0.4
2022-11-20T14:03:01.112Z,0.5
2022-11-20T14:08:01.032Z,0.3
2022-11-20T14:13:00.952Z,0.5
2022-11-20T14:15:00.959Z,0.5
2022-11-20T14:17:00.944Z,0.5
2022-11-20T14:19:00.943Z,0.3
2022-11-20T14:20:01.047Z,0.4
2022-11-20T14:22:00.918Z,0.4
2022-11-20T14:23:00.912Z,0.3
2022-11-20T14:24:00.925Z,0.2
2022-11-20T14:26:00.948Z,0.3
2022-11-20T14:29:00.929Z,0.3
2022-11-20T14:31:00.937Z,0.4
2022-11-20T14:33:00.942Z,0.3
2022-11-20T14:35:00.921Z,0.4
2022-11-20T14:36:00.950Z,0.3
2022-11-20T14:40:00.950Z,0.4
2022-11-20T14:48:00.901Z,0.1
2022-11-20T14:51:00.937Z,0.3
2022-11-20T14:53:00.935Z,0.1
2022-11-20T14:54:01.003Z,0.2
2022-11-20T14:57:00.966Z,0.1
2022-11-20T14:59:00.938Z,0.1
2022-11-20T15:00:01.045Z,0.2
2022-11-20T15:02:00.931Z,0.1
2022-11-20T15:04:01.004Z,0
2022-11-20T15:06:00.989Z,0.1
2022-11-20T15:08:00.925Z,0.2
2022-11-20T15:09:00.926Z,0
2022-11-20T15:12:01.000Z,0.1
2022-11-20T15:16:00.920Z,-0.1
2022-11-20T15:18:00.948Z,0
2022-11-20T15:19:00.952Z,-0.1
2022-11-20T15:21:00.925Z,-0.2
2022-11-20T15:24:00.969Z,-0.1
2022-11-20T15:26:00.942Z,-0.2
2022-11-20T15:27:00.965Z,-0.3
2022-11-20T15:29:00.974Z,-0.3
2022-11-20T15:33:01.075Z,-0.4
2022-11-20T15:36:00.920Z,-0.3
2022-11-20T15:37:00.937Z,-0.5
2022-11-20T15:40:00.999Z,-0.6
2022-11-20T15:42:00.973Z,-0.6
2022-11-20T15:44:00.930Z,-0.5
2022-11-20T15:45:01.172Z,-0.6
2022-11-20T15:47:00.951Z,-0.6
2022-11-20T15:49:00.948Z,-0.8
2022-11-20T15:53:00.980Z,-0.9
2022-11-20T15:55:03.144Z,-0.7
2022-11-20T15:56:00.917Z,-0.9
2022-11-20T15:58:01.070Z,-1.1
2022-11-20T15:59:00.916Z,-0.9
2022-11-20T16:00:01.038Z,-1
2022-11-20T16:02:00.988Z,-0.9
2022-11-20T16:04:00.918Z,-1.2
2022-11-20T16:08:00.945Z,-1.3
2022-11-20T16:12:00.931Z,-1.3
2022-11-20T16:13:00.927Z,-1.4
2022-11-20T16:15:01.070Z,-1.4
2022-11-20T16:17:00.945Z,-1.4
2022-11-20T16:19:00.999Z,-1.5
2022-11-20T16:22:02.829Z,-1.6
2022-11-20T16:24:00.932Z,-1.5
2022-11-20T16:26:00.922Z,-1.7
2022-11-20T16:33:01.052Z,-1.8
2022-11-20T16:34:00.957Z,-1.6
2022-11-20T16:35:01.033Z,-1.8
2022-11-20T16:37:00.939Z,-1.8
2022-11-20T16:42:00.953Z,-1.9
2022-11-20T16:46:00.989Z,-1.9
2022-11-20T16:48:01.003Z,-2
2022-11-20T16:56:01.043Z,-2.1
2022-11-20T16:58:00.963Z,-2
2022-11-20T16:59:00.959Z,-2.3
2022-11-20T17:01:00.955Z,-2.2
2022-11-20T17:03:00.915Z,-2.3
2022-11-20T17:04:01.058Z,-2.2
2022-11-20T17:06:01.047Z,-2.3
2022-11-20T17:08:00.963Z,-2.3
2022-11-20T17:10:01.007Z,-2.5
2022-11-20T17:12:01.057Z,-2.4
2022-11-20T17:14:00.936Z,-2.5
2022-11-20T17:16:00.948Z,-2.4
2022-11-20T17:18:01.025Z,-2.6
2022-11-20T17:20:00.907Z,-2.6
2022-11-20T17:21:00.987Z,-2.7
2022-11-20T17:22:01.013Z,-2.5
2022-11-20T17:24:00.942Z,-2.7
2022-11-20T17:27:00.957Z,-2.8
2022-11-20T17:30:01.176Z,-2.8
2022-11-20T17:32:00.997Z,-2.8
2022-11-20T17:34:00.919Z,-2.9
2022-11-20T17:39:00.910Z,-3
2022-11-20T17:40:00.924Z,-2.9
2022-11-20T17:42:00.923Z,-3
2022-11-20T17:44:00.905Z,-2.9
2022-11-20T17:45:01.095Z,-3
2022-11-20T17:47:00.905Z,-2.9
2022-11-20T17:49:00.983Z,-3
2022-11-20T17:52:00.928Z,-3.1
2022-11-20T17:53:00.971Z,-3
2022-11-20T17:55:00.968Z,-3.1
2022-11-20T17:57:00.890Z,-3
2022-11-20T17:58:00.939Z,-3.1
2022-11-20T18:03:00.930Z,-3
2022-11-20T18:04:00.912Z,-3.1
2022-11-20T18:05:00.946Z,-3.2
2022-11-20T18:07:00.952Z,-3
2022-11-20T18:08:01.438Z,-3.2
2022-11-20T18:11:00.933Z,-3
2022-11-20T18:13:00.976Z,-3.1
2022-11-20T18:19:00.923Z,-3
2022-11-20T18:21:00.929Z,-2.9
2022-11-20T18:24:00.911Z,-2.9
2022-11-20T18:28:00.915Z,-2.6
2022-11-20T18:29:04.647Z,-2.8
2022-11-20T18:31:00.915Z,-2.6
2022-11-20T18:34:00.957Z,-2.5
2022-11-20T18:36:00.918Z,-2.5
2022-11-20T18:39:00.966Z,-2.3
2022-11-20T18:41:03.617Z,-2.2
2022-11-20T18:42:00.961Z,-2.1
2022-11-20T18:44:00.976Z,-2.1
2022-11-20T18:45:00.979Z,-2
2022-11-20T18:47:01.013Z,-2
2022-11-20T18:50:00.943Z,-1.9
2022-11-20T18:54:00.931Z,-1.8
2022-11-20T18:55:00.996Z,-2
2022-11-20T18:59:01.655Z,-1.7
2022-11-20T19:02:00.933Z,-1.6
2022-11-20T19:03:01.162Z,-1.7
2022-11-20T19:13:00.953Z,-1.5
2022-11-20T19:16:00.933Z,-1.7
2022-11-20T19:20:00.963Z,-1.6
2022-11-20T19:22:00.964Z,-1.5
2022-11-20T19:23:00.955Z,-1.6
2022-11-20T19:26:00.921Z,-1.6
2022-11-20T19:28:00.946Z,-1.5
2022-11-20T19:30:01.123Z,-1.5
2022-11-20T19:34:00.934Z,-1.6
2022-11-20T19:35:00.929Z,-1.4
2022-11-20T19:36:01.017Z,-1.7
2022-11-20T19:38:05.285Z,-1.6
2022-11-20T19:43:00.967Z,-1.7
2022-11-20T19:45:01.138Z,-1.7
2022-11-20T19:47:01.054Z,-1.6
2022-11-20T19:51:00.920Z,-1.8
2022-11-20T19:52:00.992Z,-1.7
2022-11-20T19:55:00.932Z,-1.8
2022-11-20T19:56:00.963Z,-1.7
2022-11-20T19:57:01.015Z,-1.6
2022-11-20T19:59:00.928Z,-1.5
2022-11-20T20:00:01.098Z,-1.6
2022-11-20T20:02:01.011Z,-1.7
2022-11-20T20:03:00.977Z,-1.4
2022-11-20T20:06:00.919Z,-1.4
2022-11-20T20:09:00.928Z,-1.2
2022-11-20T20:10:00.984Z,-1.4
2022-11-20T20:14:00.945Z,-1.2
2022-11-20T20:15:01.007Z,-1.3
2022-11-20T20:18:00.957Z,-1.2
2022-11-20T20:20:01.004Z,-1
2022-11-20T20:23:00.953Z,-0.9
2022-11-20T20:24:00.987Z,-1
2022-11-20T20:28:00.972Z,-0.8
2022-11-20T20:29:00.972Z,-0.6
2022-11-20T20:31:01.121Z,-0.7
2022-11-20T20:33:00.978Z,-0.6
2022-11-20T20:34:00.971Z,-0.5
2022-11-20T20:36:00.969Z,-0.6
2022-11-20T20:37:00.961Z,-0.5
2022-11-20T20:40:00.981Z,-0.4
2022-11-20T20:41:00.976Z,-0.6
2022-11-20T20:42:00.972Z,-0.5
2022-11-20T20:43:00.962Z,-0.4
2022-11-20T20:48:00.947Z,-0.3
2022-11-20T20:51:00.987Z,-0.4
2022-11-20T20:52:01.013Z,-0.2
2022-11-20T20:56:00.985Z,-0.1
2022-11-20T20:58:01.051Z,-0.2
2022-11-20T20:59:01.087Z,-0.1
2022-11-20T21:01:00.942Z,0
2022-11-20T21:02:01.057Z,-0.1
2022-11-20T21:03:01.103Z,0.1
2022-11-20T21:09:00.936Z,0.2
2022-11-20T21:11:00.941Z,0.3
2022-11-20T21:13:00.965Z,0.2
2022-11-20T21:14:00.988Z,0.3
2022-11-20T21:15:01.167Z,0.4
2022-11-20T21:17:00.952Z,0.2
2022-11-20T21:18:00.942Z,0.4
2022-11-20T21:19:00.959Z,0.5
2022-11-20T21:21:00.965Z,0.5
2022-11-20T21:23:01.045Z,0.4
2022-11-20T21:27:00.983Z,0.4
2022-11-20T21:31:01.004Z,0.5
2022-11-20T21:33:01.015Z,0.6
2022-11-20T21:35:00.962Z,0.7
2022-11-20T21:39:01.064Z,0.6
2022-11-20T21:40:00.959Z,0.8
2022-11-20T21:43:00.964Z,0.8
2022-11-20T21:45:01.052Z,0.9
2022-11-20T21:47:00.936Z,0.9
2022-11-20T21:48:00.948Z,1
2022-11-20T21:51:05.485Z,0.9
2022-11-20T21:53:00.964Z,1.1
2022-11-20T21:54:00.973Z,1
2022-11-20T21:56:00.910Z,1.1
2022-11-20T21:57:01.041Z,1
2022-11-20T22:00:01.118Z,1.2
2022-11-20T22:03:00.976Z,1.3
2022-11-20T22:07:00.981Z,1.4
2022-11-20T22:10:00.936Z,1.3
2022-11-20T22:12:00.921Z,1.5
2022-11-20T22:13:01.426Z,1.4
2022-11-20T22:15:01.014Z,1.3
2022-11-20T22:17:00.958Z,1.5
2022-11-20T22:19:00.905Z,1.4
2022-11-20T22:20:01.080Z,1.5
2022-11-20T22:24:00.958Z,1.5
2022-11-20T22:26:00.972Z,1.6
2022-11-20T22:28:00.976Z,1.7
2022-11-20T22:31:00.976Z,1.7
2022-11-20T22:35:00.912Z,1.8
2022-11-20T22:37:00.927Z,1.7
2022-11-20T22:38:00.979Z,1.9
2022-11-20T22:40:00.945Z,1.7
2022-11-20T22:42:00.966Z,1.8
2022-11-20T22:46:00.951Z,2
2022-11-20T22:50:00.968Z,1.8
2022-11-20T22:54:00.902Z,1.9
2022-11-20T22:55:01.230Z,2
2022-11-20T22:57:00.917Z,2
2022-11-20T22:59:00.970Z,2
2022-11-20T23:00:01.205Z,2.1
2022-11-20T23:02:00.994Z,2.1
2022-11-20T23:04:00.935Z,2.1
2022-11-20T23:07:01.020Z,2.1
2022-11-20T23:09:00.886Z,2.2
2022-11-20T23:10:00.905Z,2
2022-11-20T23:12:00.918Z,2.2
2022-11-20T23:13:00.935Z,2.1
2022-11-20T23:15:00.919Z,2.1
2022-11-20T23:17:00.978Z,2.2
2022-11-20T23:20:00.965Z,2.2
2022-11-20T23:21:00.949Z,2.3
2022-11-20T23:24:00.933Z,2.2
2022-11-20T23:26:00.933Z,2.3
2022-11-20T23:27:00.913Z,2.2
2022-11-20T23:28:00.941Z,2.1
2022-11-20T23:29:01.136Z,2.2
2022-11-20T23:31:01.126Z,2.3
2022-11-20T23:33:00.996Z,2.1
2022-11-20T23:35:00.950Z,2.1
2022-11-20T23:36:00.993Z,2.2
2022-11-20T23:38:00.922Z,2.2
2022-11-20T23:41:00.979Z,2.3
2022-11-20T23:43:01.013Z,2.3
2022-11-20T23:45:00.953Z,2.2
2022-11-20T23:50:00.986Z,2.3
2022-11-20T23:51:00.961Z,2.2
2022-11-20T23:52:00.991Z,2.3
2022-11-20T23:54:04.684Z,2.2
2022-11-20T23:56:00.932Z,2.3
2022-11-20T23:57:00.915Z,2.2
2022-11-20T23:58:00.937Z,2.3
2022-11-20T23:59:00.925Z,2.2
